sensor_id;sensor_type;location;lat;lon;timestamp;P1;durP1;ratioP1;P2;durP2;ratioP2
73158;SDS011;61370;48.594;10.202;2022-08-11T00:01:19;3.25;;;1.90;;
73158;SDS011;61370;48.594;10.202;2022-08-11T00:06:28;4.63;;;1.92;;
73158;SDS011;61370;48.594;10.202;2022-08-11T00:08:56;3.67;;;2.15;;
73158;SDS011;61370;48.594;10.202;2022-08-11T00:11:34;6.18;;;2.20;;
73158;SDS011;61370;48.594;10.202;2022-08-11T00:14:04;3.88;;;2.10;;
73158;SDS011;61370;48.594;10.202;2022-08-11T00:16:39;3.65;;;2.00;;
73158;SDS011;61370;48.594;10.202;2022-08-11T00:19:08;3.90;;;2.20;;
73158;SDS011;61370;48.594;10.202;2022-08-11T00:21:39;4.22;;;2.10;;
73158;SDS011;61370;48.594;10.202;2022-08-11T00:24:06;3.83;;;2.20;;
73158;SDS011;61370;48.594;10.202;2022-08-11T00:26:33;4.85;;;2.00;;
73158;SDS011;61370;48.594;10.202;2022-08-11T00:29:10;4.53;;;2.13;;
73158;SDS011;61370;48.594;10.202;2022-08-11T00:31:37;3.75;;;2.30;;
73158;SDS011;61370;48.594;10.202;2022-08-11T00:34:09;5.28;;;2.60;;
73158;SDS011;61370;48.594;10.202;2022-08-11T00:36:38;5.20;;;2.20;;
73158;SDS011;61370;48.594;10.202;2022-08-11T00:39:05;4.15;;;2.15;;
73158;SDS011;61370;48.594;10.202;2022-08-11T00:41:35;4.00;;;2.13;;
73158;SDS011;61370;48.594;10.202;2022-08-11T00:53:04;4.20;;;2.35;;
73158;SDS011;61370;48.594;10.202;2022-08-11T01:04:09;3.90;;;2.30;;
73158;SDS011;61370;48.594;10.202;2022-08-11T01:10:36;3.90;;;2.28;;
73158;SDS011;61370;48.594;10.202;2022-08-11T01:16:03;3.92;;;2.17;;
73158;SDS011;61370;48.594;10.202;2022-08-11T01:18:54;3.97;;;2.30;;
73158;SDS011;61370;48.594;10.202;2022-08-11T01:50:08;4.20;;;2.40;;
73158;SDS011;61370;48.594;10.202;2022-08-11T01:52:43;4.90;;;2.55;;
73158;SDS011;61370;48.594;10.202;2022-08-11T02:03:45;4.03;;;2.42;;
73158;SDS011;61370;48.594;10.202;2022-08-11T02:09:40;5.25;;;2.50;;
73158;SDS011;61370;48.594;10.202;2022-08-11T02:15:07;3.80;;;2.30;;
73158;SDS011;61370;48.594;10.202;2022-08-11T02:17:46;4.47;;;2.63;;
73158;SDS011;61370;48.594;10.202;2022-08-11T02:20:27;4.35;;;2.50;;
73158;SDS011;61370;48.594;10.202;2022-08-11T02:26:22;3.92;;;2.63;;
73158;SDS011;61370;48.594;10.202;2022-08-11T02:28:56;5.40;;;2.42;;
73158;SDS011;61370;48.594;10.202;2022-08-11T02:31:37;4.88;;;2.45;;
73158;SDS011;61370;48.594;10.202;2022-08-11T02:34:44;4.10;;;2.33;;
73158;SDS011;61370;48.594;10.202;2022-08-11T02:37:17;4.22;;;2.40;;
73158;SDS011;61370;48.594;10.202;2022-08-11T02:40:04;4.13;;;2.60;;
73158;SDS011;61370;48.594;10.202;2022-08-11T03:13:33;4.10;;;2.40;;
73158;SDS011;61370;48.594;10.202;2022-08-11T03:21:47;6.70;;;2.70;;
73158;SDS011;61370;48.594;10.202;2022-08-11T03:24:24;4.97;;;2.47;;
73158;SDS011;61370;48.594;10.202;2022-08-11T03:29:46;5.53;;;2.80;;
73158;SDS011;61370;48.594;10.202;2022-08-11T03:32:25;5.13;;;2.90;;
73158;SDS011;61370;48.594;10.202;2022-08-11T03:34:55;5.22;;;2.50;;
73158;SDS011;61370;48.594;10.202;2022-08-11T03:40:28;5.45;;;2.83;;
73158;SDS011;61370;48.594;10.202;2022-08-11T03:43:52;5.32;;;2.50;;
73158;SDS011;61370;48.594;10.202;2022-08-11T03:54:31;4.78;;;2.70;;
73158;SDS011;61370;48.594;10.202;2022-08-11T04:00:05;6.57;;;3.25;;
73158;SDS011;61370;48.594;10.202;2022-08-11T04:25:28;4.90;;;2.88;;
73158;SDS011;61370;48.594;10.202;2022-08-11T04:31:03;6.68;;;3.08;;
73158;SDS011;61370;48.594;10.202;2022-08-11T04:36:36;5.32;;;3.05;;
73158;SDS011;61370;48.594;10.202;2022-08-11T05:07:07;5.45;;;2.67;;
73158;SDS011;61370;48.594;10.202;2022-08-11T05:10:36;4.55;;;2.58;;
73158;SDS011;61370;48.594;10.202;2022-08-11T05:15:33;5.68;;;2.80;;
73158;SDS011;61370;48.594;10.202;2022-08-11T05:18:29;5.00;;;2.70;;
73158;SDS011;61370;48.594;10.202;2022-08-11T05:21:15;6.03;;;2.70;;
73158;SDS011;61370;48.594;10.202;2022-08-11T05:26:48;5.47;;;2.78;;
73158;SDS011;61370;48.594;10.202;2022-08-11T05:30:08;6.25;;;2.90;;
73158;SDS011;61370;48.594;10.202;2022-08-11T05:32:59;5.30;;;2.50;;
73158;SDS011;61370;48.594;10.202;2022-08-11T05:35:48;4.50;;;2.42;;
73158;SDS011;61370;48.594;10.202;2022-08-11T05:38:17;6.35;;;2.97;;
73158;SDS011;61370;48.594;10.202;2022-08-11T05:41:05;5.75;;;2.80;;
73158;SDS011;61370;48.594;10.202;2022-08-11T05:43:50;6.18;;;2.70;;
73158;SDS011;61370;48.594;10.202;2022-08-11T05:46:42;6.80;;;2.78;;
73158;SDS011;61370;48.594;10.202;2022-08-11T05:49:30;5.80;;;3.35;;
73158;SDS011;61370;48.594;10.202;2022-08-11T05:52:16;5.65;;;2.83;;
73158;SDS011;61370;48.594;10.202;2022-08-11T05:55:04;4.78;;;2.60;;
73158;SDS011;61370;48.594;10.202;2022-08-11T05:57:58;6.63;;;2.70;;
73158;SDS011;61370;48.594;10.202;2022-08-11T06:00:27;4.88;;;2.85;;
73158;SDS011;61370;48.594;10.202;2022-08-11T06:02:58;5.22;;;3.10;;
73158;SDS011;61370;48.594;10.202;2022-08-11T06:05:38;6.55;;;2.70;;
73158;SDS011;61370;48.594;10.202;2022-08-11T06:08:08;7.07;;;3.13;;
73158;SDS011;61370;48.594;10.202;2022-08-11T06:10:36;8.25;;;3.05;;
73158;SDS011;61370;48.594;10.202;2022-08-11T06:13:04;5.38;;;3.00;;
73158;SDS011;61370;48.594;10.202;2022-08-11T06:15:33;7.88;;;3.20;;
73158;SDS011;61370;48.594;10.202;2022-08-11T06:18:00;5.93;;;3.03;;
73158;SDS011;61370;48.594;10.202;2022-08-11T06:20:28;6.30;;;2.85;;
73158;SDS011;61370;48.594;10.202;2022-08-11T06:23:03;4.30;;;2.70;;
73158;SDS011;61370;48.594;10.202;2022-08-11T06:25:32;5.75;;;3.17;;
73158;SDS011;61370;48.594;10.202;2022-08-11T06:28:04;5.60;;;2.92;;
73158;SDS011;61370;48.594;10.202;2022-08-11T06:30:32;4.85;;;3.10;;
73158;SDS011;61370;48.594;10.202;2022-08-11T06:33:07;3.90;;;2.67;;
73158;SDS011;61370;48.594;10.202;2022-08-11T06:38:37;6.10;;;2.78;;
73158;SDS011;61370;48.594;10.202;2022-08-11T06:41:18;7.93;;;2.97;;
73158;SDS011;61370;48.594;10.202;2022-08-11T06:46:41;6.88;;;2.75;;
73158;SDS011;61370;48.594;10.202;2022-08-11T06:49:10;5.20;;;2.90;;
73158;SDS011;61370;48.594;10.202;2022-08-11T06:51:58;5.57;;;2.90;;
73158;SDS011;61370;48.594;10.202;2022-08-11T06:54:31;5.80;;;3.13;;
73158;SDS011;61370;48.594;10.202;2022-08-11T06:56:59;3.95;;;2.55;;
73158;SDS011;61370;48.594;10.202;2022-08-11T06:59:45;4.45;;;2.90;;
73158;SDS011;61370;48.594;10.202;2022-08-11T07:02:45;5.15;;;2.75;;
73158;SDS011;61370;48.594;10.202;2022-08-11T07:05:18;4.63;;;2.90;;
73158;SDS011;61370;48.594;10.202;2022-08-11T07:11:25;5.90;;;2.40;;
73158;SDS011;61370;48.594;10.202;2022-08-11T07:13:58;4.82;;;2.90;;
73158;SDS011;61370;48.594;10.202;2022-08-11T07:16:43;4.65;;;2.83;;
73158;SDS011;61370;48.594;10.202;2022-08-11T07:19:10;4.30;;;2.90;;
73158;SDS011;61370;48.594;10.202;2022-08-11T07:21:56;5.47;;;2.65;;
73158;SDS011;61370;48.594;10.202;2022-08-11T07:24:46;5.60;;;2.78;;
73158;SDS011;61370;48.594;10.202;2022-08-11T07:27:38;4.72;;;2.45;;
73158;SDS011;61370;48.594;10.202;2022-08-11T07:30:26;4.88;;;2.53;;
73158;SDS011;61370;48.594;10.202;2022-08-11T07:32:54;4.78;;;2.83;;
73158;SDS011;61370;48.594;10.202;2022-08-11T07:37:56;4.72;;;2.70;;
73158;SDS011;61370;48.594;10.202;2022-08-11T07:40:24;4.68;;;2.78;;
73158;SDS011;61370;48.594;10.202;2022-08-11T07:42:51;4.15;;;2.42;;
73158;SDS011;61370;48.594;10.202;2022-08-11T07:45:19;4.20;;;2.72;;
73158;SDS011;61370;48.594;10.202;2022-08-11T07:48:04;5.00;;;2.67;;
73158;SDS011;61370;48.594;10.202;2022-08-11T07:50:50;6.30;;;2.47;;
73158;SDS011;61370;48.594;10.202;2022-08-11T07:53:36;5.40;;;2.58;;
73158;SDS011;61370;48.594;10.202;2022-08-11T07:56:03;5.78;;;2.40;;
73158;SDS011;61370;48.594;10.202;2022-08-11T07:58:34;4.72;;;2.70;;
73158;SDS011;61370;48.594;10.202;2022-08-11T08:01:22;4.47;;;2.55;;
73158;SDS011;61370;48.594;10.202;2022-08-11T08:04:08;7.68;;;2.92;;
73158;SDS011;61370;48.594;10.202;2022-08-11T08:06:56;4.30;;;2.80;;
73158;SDS011;61370;48.594;10.202;2022-08-11T08:09:42;7.18;;;2.75;;
73158;SDS011;61370;48.594;10.202;2022-08-11T08:12:27;6.35;;;2.40;;
73158;SDS011;61370;48.594;10.202;2022-08-11T08:15:14;4.95;;;2.58;;
73158;SDS011;61370;48.594;10.202;2022-08-11T08:18:02;4.80;;;2.63;;
73158;SDS011;61370;48.594;10.202;2022-08-11T08:20:46;5.55;;;2.70;;
73158;SDS011;61370;48.594;10.202;2022-08-11T08:23:18;5.05;;;2.28;;
73158;SDS011;61370;48.594;10.202;2022-08-11T08:25:58;5.55;;;2.70;;
73158;SDS011;61370;48.594;10.202;2022-08-11T08:28:26;4.45;;;2.78;;
73158;SDS011;61370;48.594;10.202;2022-08-11T08:30:53;4.00;;;2.30;;
73158;SDS011;61370;48.594;10.202;2022-08-11T08:33:22;4.75;;;2.20;;
73158;SDS011;61370;48.594;10.202;2022-08-11T08:41:17;6.18;;;2.53;;
73158;SDS011;61370;48.594;10.202;2022-08-11T08:43:47;5.30;;;2.45;;
73158;SDS011;61370;48.594;10.202;2022-08-11T08:46:18;7.90;;;2.50;;
73158;SDS011;61370;48.594;10.202;2022-08-11T08:48:47;4.22;;;2.42;;
73158;SDS011;61370;48.594;10.202;2022-08-11T08:51:14;6.45;;;2.40;;
73158;SDS011;61370;48.594;10.202;2022-08-11T08:54:03;4.30;;;2.13;;
73158;SDS011;61370;48.594;10.202;2022-08-11T08:56:31;5.38;;;2.20;;
73158;SDS011;61370;48.594;10.202;2022-08-11T08:59:02;4.50;;;2.20;;
73158;SDS011;61370;48.594;10.202;2022-08-11T09:01:31;3.75;;;2.13;;
73158;SDS011;61370;48.594;10.202;2022-08-11T09:04:02;5.53;;;2.35;;
73158;SDS011;61370;48.594;10.202;2022-08-11T09:06:34;4.15;;;2.00;;
73158;SDS011;61370;48.594;10.202;2022-08-11T09:09:05;6.88;;;2.20;;
73158;SDS011;61370;48.594;10.202;2022-08-11T09:11:37;5.15;;;2.13;;
73158;SDS011;61370;48.594;10.202;2022-08-11T09:14:16;3.05;;;1.90;;
73158;SDS011;61370;48.594;10.202;2022-08-11T09:16:43;4.13;;;1.60;;
73158;SDS011;61370;48.594;10.202;2022-08-11T09:19:12;5.90;;;2.10;;
73158;SDS011;61370;48.594;10.202;2022-08-11T09:21:39;3.85;;;1.83;;
73158;SDS011;61370;48.594;10.202;2022-08-11T09:24:06;3.97;;;1.90;;
73158;SDS011;61370;48.594;10.202;2022-08-11T09:26:52;6.57;;;2.10;;
73158;SDS011;61370;48.594;10.202;2022-08-11T09:29:30;3.67;;;1.90;;
73158;SDS011;61370;48.594;10.202;2022-08-11T09:31:57;4.03;;;2.00;;
73158;SDS011;61370;48.594;10.202;2022-08-11T09:34:24;7.35;;;2.47;;
73158;SDS011;61370;48.594;10.202;2022-08-11T09:36:51;3.58;;;2.10;;
73158;SDS011;61370;48.594;10.202;2022-08-11T09:39:37;3.47;;;1.52;;
73158;SDS011;61370;48.594;10.202;2022-08-11T09:42:23;3.80;;;1.88;;
73158;SDS011;61370;48.594;10.202;2022-08-11T09:45:10;7.30;;;1.95;;
73158;SDS011;61370;48.594;10.202;2022-08-11T09:47:37;6.35;;;1.92;;
73158;SDS011;61370;48.594;10.202;2022-08-11T09:50:05;4.15;;;2.20;;
73158;SDS011;61370;48.594;10.202;2022-08-11T09:52:38;4.47;;;2.10;;
73158;SDS011;61370;48.594;10.202;2022-08-11T09:55:05;6.03;;;1.90;;
73158;SDS011;61370;48.594;10.202;2022-08-11T09:57:39;4.53;;;1.90;;
73158;SDS011;61370;48.594;10.202;2022-08-11T10:00:29;4.00;;;1.65;;
73158;SDS011;61370;48.594;10.202;2022-08-11T10:02:57;3.22;;;1.92;;
73158;SDS011;61370;48.594;10.202;2022-08-11T10:05:23;5.10;;;1.80;;
73158;SDS011;61370;48.594;10.202;2022-08-11T10:08:11;3.20;;;1.70;;
73158;SDS011;61370;48.594;10.202;2022-08-11T10:10:38;3.83;;;2.00;;
73158;SDS011;61370;48.594;10.202;2022-08-11T10:13:06;4.05;;;1.90;;
73158;SDS011;61370;48.594;10.202;2022-08-11T10:15:34;3.95;;;1.70;;
73158;SDS011;61370;48.594;10.202;2022-08-11T10:20:59;3.30;;;1.67;;
73158;SDS011;61370;48.594;10.202;2022-08-11T10:23:34;3.60;;;1.75;;
73158;SDS011;61370;48.594;10.202;2022-08-11T10:26:22;2.88;;;1.63;;
73158;SDS011;61370;48.594;10.202;2022-08-11T10:29:08;3.67;;;2.15;;
73158;SDS011;61370;48.594;10.202;2022-08-11T10:31:54;3.53;;;1.80;;
73158;SDS011;61370;48.594;10.202;2022-08-11T10:34:40;4.55;;;1.95;;
73158;SDS011;61370;48.594;10.202;2022-08-11T10:37:09;4.00;;;2.00;;
73158;SDS011;61370;48.594;10.202;2022-08-11T10:39:36;3.20;;;1.88;;
73158;SDS011;61370;48.594;10.202;2022-08-11T10:42:04;4.28;;;2.00;;
73158;SDS011;61370;48.594;10.202;2022-08-11T10:44:50;4.30;;;2.03;;
73158;SDS011;61370;48.594;10.202;2022-08-11T10:47:18;2.92;;;1.70;;
73158;SDS011;61370;48.594;10.202;2022-08-11T10:50:07;5.22;;;2.72;;
73158;SDS011;61370;48.594;10.202;2022-08-11T10:52:54;4.13;;;2.05;;
73158;SDS011;61370;48.594;10.202;2022-08-11T10:55:41;3.88;;;1.50;;
73158;SDS011;61370;48.594;10.202;2022-08-11T10:58:27;4.32;;;1.80;;
73158;SDS011;61370;48.594;10.202;2022-08-11T11:03:48;3.65;;;1.70;;
73158;SDS011;61370;48.594;10.202;2022-08-11T11:09:01;6.75;;;1.98;;
73158;SDS011;61370;48.594;10.202;2022-08-11T11:11:35;6.03;;;1.90;;
73158;SDS011;61370;48.594;10.202;2022-08-11T11:14:23;3.95;;;1.80;;
73158;SDS011;61370;48.594;10.202;2022-08-11T11:17:12;3.50;;;1.67;;
73158;SDS011;61370;48.594;10.202;2022-08-11T11:19:52;3.92;;;1.70;;
73158;SDS011;61370;48.594;10.202;2022-08-11T11:22:22;4.53;;;1.92;;
73158;SDS011;61370;48.594;10.202;2022-08-11T11:28:13;5.50;;;1.98;;
73158;SDS011;61370;48.594;10.202;2022-08-11T11:36:26;5.18;;;1.60;;
73158;SDS011;61370;48.594;10.202;2022-08-11T11:38:57;5.45;;;1.80;;
73158;SDS011;61370;48.594;10.202;2022-08-11T11:41:24;3.47;;;1.92;;
73158;SDS011;61370;48.594;10.202;2022-08-11T11:43:52;7.93;;;2.10;;
73158;SDS011;61370;48.594;10.202;2022-08-11T11:46:23;4.28;;;1.98;;
73158;SDS011;61370;48.594;10.202;2022-08-11T11:51:21;3.80;;;1.88;;
73158;SDS011;61370;48.594;10.202;2022-08-11T11:53:49;3.05;;;1.90;;
73158;SDS011;61370;48.594;10.202;2022-08-11T11:56:16;4.60;;;2.20;;
73158;SDS011;61370;48.594;10.202;2022-08-11T11:58:44;4.25;;;1.75;;
73158;SDS011;61370;48.594;10.202;2022-08-11T12:01:29;3.20;;;1.67;;
73158;SDS011;61370;48.594;10.202;2022-08-11T12:03:57;3.35;;;1.83;;
73158;SDS011;61370;48.594;10.202;2022-08-11T12:06:23;3.50;;;1.80;;
73158;SDS011;61370;48.594;10.202;2022-08-11T12:08:52;4.18;;;2.00;;
73158;SDS011;61370;48.594;10.202;2022-08-11T12:11:20;2.90;;;1.52;;
73158;SDS011;61370;48.594;10.202;2022-08-11T12:14:08;4.65;;;1.83;;
73158;SDS011;61370;48.594;10.202;2022-08-11T12:16:36;2.47;;;1.55;;
73158;SDS011;61370;48.594;10.202;2022-08-11T12:19:07;5.05;;;1.90;;
73158;SDS011;61370;48.594;10.202;2022-08-11T12:21:37;4.50;;;2.13;;
73158;SDS011;61370;48.594;10.202;2022-08-11T12:24:24;3.90;;;1.80;;
73158;SDS011;61370;48.594;10.202;2022-08-11T12:27:11;5.25;;;2.22;;
73158;SDS011;61370;48.594;10.202;2022-08-11T12:29:48;4.32;;;1.70;;
73158;SDS011;61370;48.594;10.202;2022-08-11T12:32:26;4.07;;;1.80;;
73158;SDS011;61370;48.594;10.202;2022-08-11T12:34:55;3.63;;;1.90;;
73158;SDS011;61370;48.594;10.202;2022-08-11T12:37:29;3.55;;;1.80;;
73158;SDS011;61370;48.594;10.202;2022-08-11T12:39:58;3.95;;;1.70;;
73158;SDS011;61370;48.594;10.202;2022-08-11T12:42:45;3.67;;;1.92;;
73158;SDS011;61370;48.594;10.202;2022-08-11T12:45:31;3.30;;;1.70;;
73158;SDS011;61370;48.594;10.202;2022-08-11T12:50:45;4.65;;;1.80;;
73158;SDS011;61370;48.594;10.202;2022-08-11T12:53:31;3.97;;;1.67;;
73158;SDS011;61370;48.594;10.202;2022-08-11T12:56:02;3.58;;;1.83;;
73158;SDS011;61370;48.594;10.202;2022-08-11T12:58:49;3.95;;;1.75;;
73158;SDS011;61370;48.594;10.202;2022-08-11T13:01:17;3.53;;;1.90;;
73158;SDS011;61370;48.594;10.202;2022-08-11T13:04:03;3.70;;;1.83;;
73158;SDS011;61370;48.594;10.202;2022-08-11T13:06:49;4.70;;;2.10;;
73158;SDS011;61370;48.594;10.202;2022-08-11T13:09:16;3.33;;;1.60;;
73158;SDS011;61370;48.594;10.202;2022-08-11T13:11:43;3.88;;;1.70;;
73158;SDS011;61370;48.594;10.202;2022-08-11T13:14:28;3.85;;;1.70;;
73158;SDS011;61370;48.594;10.202;2022-08-11T13:16:58;3.72;;;1.80;;
73158;SDS011;61370;48.594;10.202;2022-08-11T13:19:44;3.10;;;1.63;;
73158;SDS011;61370;48.594;10.202;2022-08-11T13:22:11;3.45;;;1.80;;
73158;SDS011;61370;48.594;10.202;2022-08-11T13:24:37;3.10;;;1.60;;
73158;SDS011;61370;48.594;10.202;2022-08-11T13:27:05;3.25;;;1.67;;
73158;SDS011;61370;48.594;10.202;2022-08-11T13:29:31;6.25;;;1.90;;
73158;SDS011;61370;48.594;10.202;2022-08-11T13:32:00;4.25;;;1.60;;
73158;SDS011;61370;48.594;10.202;2022-08-11T13:34:28;4.18;;;2.05;;
73158;SDS011;61370;48.594;10.202;2022-08-11T13:36:57;4.82;;;1.60;;
73158;SDS011;61370;48.594;10.202;2022-08-11T13:39:26;3.38;;;1.70;;
73158;SDS011;61370;48.594;10.202;2022-08-11T13:41:54;3.80;;;2.00;;
73158;SDS011;61370;48.594;10.202;2022-08-11T13:44:23;3.47;;;1.75;;
73158;SDS011;61370;48.594;10.202;2022-08-11T13:46:57;4.45;;;2.17;;
73158;SDS011;61370;48.594;10.202;2022-08-11T13:49:27;3.35;;;1.70;;
73158;SDS011;61370;48.594;10.202;2022-08-11T13:51:55;3.10;;;1.80;;
73158;SDS011;61370;48.594;10.202;2022-08-11T13:54:23;3.17;;;1.70;;
73158;SDS011;61370;48.594;10.202;2022-08-11T13:56:53;3.05;;;1.52;;
73158;SDS011;61370;48.594;10.202;2022-08-11T13:59:21;4.45;;;1.73;;
73158;SDS011;61370;48.594;10.202;2022-08-11T14:01:52;4.22;;;1.63;;
73158;SDS011;61370;48.594;10.202;2022-08-11T14:04:29;5.50;;;1.80;;
73158;SDS011;61370;48.594;10.202;2022-08-11T14:06:59;2.70;;;1.40;;
73158;SDS011;61370;48.594;10.202;2022-08-11T14:09:29;3.50;;;1.60;;
73158;SDS011;61370;48.594;10.202;2022-08-11T14:12:00;2.85;;;1.63;;
73158;SDS011;61370;48.594;10.202;2022-08-11T14:14:48;3.83;;;1.50;;
73158;SDS011;61370;48.594;10.202;2022-08-11T14:17:17;3.35;;;1.50;;
73158;SDS011;61370;48.594;10.202;2022-08-11T14:19:44;2.47;;;1.45;;
73158;SDS011;61370;48.594;10.202;2022-08-11T14:22:13;7.68;;;1.58;;
73158;SDS011;61370;48.594;10.202;2022-08-11T14:24:42;2.55;;;1.30;;
73158;SDS011;61370;48.594;10.202;2022-08-11T14:27:10;3.90;;;1.55;;
73158;SDS011;61370;48.594;10.202;2022-08-11T14:29:38;4.28;;;1.60;;
73158;SDS011;61370;48.594;10.202;2022-08-11T14:32:09;3.10;;;1.60;;
73158;SDS011;61370;48.594;10.202;2022-08-11T14:34:40;3.20;;;1.50;;
73158;SDS011;61370;48.594;10.202;2022-08-11T14:37:09;2.40;;;1.25;;
73158;SDS011;61370;48.594;10.202;2022-08-11T14:39:42;4.38;;;1.50;;
73158;SDS011;61370;48.594;10.202;2022-08-11T14:42:11;3.75;;;1.65;;
73158;SDS011;61370;48.594;10.202;2022-08-11T14:45:05;3.63;;;1.60;;
73158;SDS011;61370;48.594;10.202;2022-08-11T14:47:53;3.50;;;1.63;;
73158;SDS011;61370;48.594;10.202;2022-08-11T14:53:00;2.58;;;1.50;;
73158;SDS011;61370;48.594;10.202;2022-08-11T14:55:33;3.38;;;1.60;;
73158;SDS011;61370;48.594;10.202;2022-08-11T14:58:20;3.90;;;1.58;;
73158;SDS011;61370;48.594;10.202;2022-08-11T15:00:51;2.95;;;1.52;;
73158;SDS011;61370;48.594;10.202;2022-08-11T15:03:18;3.50;;;1.30;;
73158;SDS011;61370;48.594;10.202;2022-08-11T15:05:49;2.80;;;1.40;;
73158;SDS011;61370;48.594;10.202;2022-08-11T15:08:18;2.90;;;1.60;;
73158;SDS011;61370;48.594;10.202;2022-08-11T15:10:45;6.60;;;1.60;;
73158;SDS011;61370;48.594;10.202;2022-08-11T15:13:16;7.03;;;1.65;;
73158;SDS011;61370;48.594;10.202;2022-08-11T15:15:45;6.95;;;1.67;;
73158;SDS011;61370;48.594;10.202;2022-08-11T15:18:30;7.35;;;2.00;;
73158;SDS011;61370;48.594;10.202;2022-08-11T15:20:57;2.83;;;1.50;;
73158;SDS011;61370;48.594;10.202;2022-08-11T15:23:42;3.25;;;1.40;;
73158;SDS011;61370;48.594;10.202;2022-08-11T15:26:36;3.40;;;1.40;;
73158;SDS011;61370;48.594;10.202;2022-08-11T15:29:22;3.22;;;1.50;;
73158;SDS011;61370;48.594;10.202;2022-08-11T15:32:09;3.90;;;1.40;;
73158;SDS011;61370;48.594;10.202;2022-08-11T15:34:57;3.03;;;1.40;;
73158;SDS011;61370;48.594;10.202;2022-08-11T15:37:43;2.90;;;1.30;;
73158;SDS011;61370;48.594;10.202;2022-08-11T15:40:18;4.63;;;1.77;;
73158;SDS011;61370;48.594;10.202;2022-08-11T15:43:12;2.80;;;1.40;;
73158;SDS011;61370;48.594;10.202;2022-08-11T15:46:05;3.30;;;1.45;;
73158;SDS011;61370;48.594;10.202;2022-08-11T15:48:50;3.13;;;1.65;;
73158;SDS011;61370;48.594;10.202;2022-08-11T15:54:09;3.00;;;1.50;;
73158;SDS011;61370;48.594;10.202;2022-08-11T15:56:38;4.18;;;1.50;;
73158;SDS011;61370;48.594;10.202;2022-08-11T15:59:16;3.72;;;1.60;;
73158;SDS011;61370;48.594;10.202;2022-08-11T16:02:03;3.88;;;1.55;;
73158;SDS011;61370;48.594;10.202;2022-08-11T16:04:48;2.92;;;1.83;;
73158;SDS011;61370;48.594;10.202;2022-08-11T16:07:16;3.72;;;1.55;;
73158;SDS011;61370;48.594;10.202;2022-08-11T16:09:54;5.25;;;1.70;;
73158;SDS011;61370;48.594;10.202;2022-08-11T16:15:32;3.10;;;1.67;;
73158;SDS011;61370;48.594;10.202;2022-08-11T16:18:19;3.88;;;1.70;;
73158;SDS011;61370;48.594;10.202;2022-08-11T16:20:49;3.33;;;1.77;;
73158;SDS011;61370;48.594;10.202;2022-08-11T16:23:17;3.72;;;1.50;;
73158;SDS011;61370;48.594;10.202;2022-08-11T16:25:44;6.57;;;1.70;;
73158;SDS011;61370;48.594;10.202;2022-08-11T16:28:11;3.00;;;1.40;;
73158;SDS011;61370;48.594;10.202;2022-08-11T16:30:39;4.47;;;1.80;;
73158;SDS011;61370;48.594;10.202;2022-08-11T16:33:08;2.97;;;1.65;;
73158;SDS011;61370;48.594;10.202;2022-08-11T16:35:36;4.20;;;1.60;;
73158;SDS011;61370;48.594;10.202;2022-08-11T16:38:24;2.60;;;1.50;;
73158;SDS011;61370;48.594;10.202;2022-08-11T16:41:08;3.20;;;1.50;;
73158;SDS011;61370;48.594;10.202;2022-08-11T16:43:38;4.75;;;1.60;;
73158;SDS011;61370;48.594;10.202;2022-08-11T16:46:28;3.55;;;1.83;;
73158;SDS011;61370;48.594;10.202;2022-08-11T16:49:20;4.85;;;1.60;;
73158;SDS011;61370;48.594;10.202;2022-08-11T16:51:50;4.00;;;1.73;;
73158;SDS011;61370;48.594;10.202;2022-08-11T16:54:17;3.60;;;1.45;;
73158;SDS011;61370;48.594;10.202;2022-08-11T16:56:45;3.53;;;1.85;;
73158;SDS011;61370;48.594;10.202;2022-08-11T16:59:23;3.47;;;1.73;;
73158;SDS011;61370;48.594;10.202;2022-08-11T17:01:53;2.97;;;1.67;;
73158;SDS011;61370;48.594;10.202;2022-08-11T17:04:38;3.15;;;1.70;;
73158;SDS011;61370;48.594;10.202;2022-08-11T17:07:28;4.78;;;1.85;;
73158;SDS011;61370;48.594;10.202;2022-08-11T17:10:18;4.65;;;1.77;;
73158;SDS011;61370;48.594;10.202;2022-08-11T17:13:09;3.00;;;1.58;;
73158;SDS011;61370;48.594;10.202;2022-08-11T17:15:38;3.58;;;1.60;;
73158;SDS011;61370;48.594;10.202;2022-08-11T17:18:35;4.45;;;1.85;;
73158;SDS011;61370;48.594;10.202;2022-08-11T17:21:07;3.72;;;1.55;;
73158;SDS011;61370;48.594;10.202;2022-08-11T17:23:37;3.17;;;1.58;;
73158;SDS011;61370;48.594;10.202;2022-08-11T17:32:46;4.10;;;1.67;;
73158;SDS011;61370;48.594;10.202;2022-08-11T17:35:34;4.50;;;1.35;;
73158;SDS011;61370;48.594;10.202;2022-08-11T17:38:04;4.50;;;1.60;;
73158;SDS011;61370;48.594;10.202;2022-08-11T17:40:38;4.55;;;1.70;;
73158;SDS011;61370;48.594;10.202;2022-08-11T17:43:26;3.90;;;1.73;;
73158;SDS011;61370;48.594;10.202;2022-08-11T17:46:13;3.00;;;1.48;;
73158;SDS011;61370;48.594;10.202;2022-08-11T17:48:59;4.07;;;1.70;;
73158;SDS011;61370;48.594;10.202;2022-08-11T17:51:25;3.00;;;1.70;;
73158;SDS011;61370;48.594;10.202;2022-08-11T17:56:57;9.05;;;1.95;;
73158;SDS011;61370;48.594;10.202;2022-08-11T17:59:42;4.03;;;1.70;;
73158;SDS011;61370;48.594;10.202;2022-08-11T18:02:34;5.43;;;2.13;;
73158;SDS011;61370;48.594;10.202;2022-08-11T18:05:22;5.35;;;1.80;;
73158;SDS011;61370;48.594;10.202;2022-08-11T18:07:52;3.50;;;1.90;;
73158;SDS011;61370;48.594;10.202;2022-08-11T18:10:39;5.82;;;1.80;;
73158;SDS011;61370;48.594;10.202;2022-08-11T18:13:25;6.40;;;1.80;;
73158;SDS011;61370;48.594;10.202;2022-08-11T18:16:11;3.30;;;1.70;;
73158;SDS011;61370;48.594;10.202;2022-08-11T18:18:56;8.40;;;1.73;;
73158;SDS011;61370;48.594;10.202;2022-08-11T18:21:43;3.33;;;1.70;;
73158;SDS011;61370;48.594;10.202;2022-08-11T18:24:30;4.75;;;1.90;;
73158;SDS011;61370;48.594;10.202;2022-08-11T18:27:18;7.25;;;2.05;;
73158;SDS011;61370;48.594;10.202;2022-08-11T18:30:04;7.10;;;2.08;;
73158;SDS011;61370;48.594;10.202;2022-08-11T18:32:50;8.35;;;2.00;;
73158;SDS011;61370;48.594;10.202;2022-08-11T18:35:38;9.65;;;2.70;;
73158;SDS011;61370;48.594;10.202;2022-08-11T18:38:26;5.43;;;1.70;;
73158;SDS011;61370;48.594;10.202;2022-08-11T18:41:12;3.45;;;1.70;;
73158;SDS011;61370;48.594;10.202;2022-08-11T18:43:59;4.60;;;1.70;;
73158;SDS011;61370;48.594;10.202;2022-08-11T18:46:46;3.50;;;1.80;;
73158;SDS011;61370;48.594;10.202;2022-08-11T18:49:34;5.20;;;1.70;;
73158;SDS011;61370;48.594;10.202;2022-08-11T18:52:20;4.55;;;1.77;;
73158;SDS011;61370;48.594;10.202;2022-08-11T18:55:08;4.07;;;1.73;;
73158;SDS011;61370;48.594;10.202;2022-08-11T18:57:55;3.08;;;1.85;;
73158;SDS011;61370;48.594;10.202;2022-08-11T19:00:42;6.43;;;1.80;;
73158;SDS011;61370;48.594;10.202;2022-08-11T19:03:29;6.18;;;1.85;;
73158;SDS011;61370;48.594;10.202;2022-08-11T19:06:16;4.63;;;1.80;;
73158;SDS011;61370;48.594;10.202;2022-08-11T19:09:04;4.72;;;1.70;;
73158;SDS011;61370;48.594;10.202;2022-08-11T19:11:51;4.93;;;1.70;;
73158;SDS011;61370;48.594;10.202;2022-08-11T19:14:37;5.10;;;1.92;;
73158;SDS011;61370;48.594;10.202;2022-08-11T19:17:22;5.53;;;1.70;;
73158;SDS011;61370;48.594;10.202;2022-08-11T19:20:12;3.88;;;1.77;;
73158;SDS011;61370;48.594;10.202;2022-08-11T19:22:59;7.25;;;1.95;;
73158;SDS011;61370;48.594;10.202;2022-08-11T19:25:46;4.32;;;1.88;;
73158;SDS011;61370;48.594;10.202;2022-08-11T19:28:32;5.10;;;2.00;;
73158;SDS011;61370;48.594;10.202;2022-08-11T19:34:03;5.18;;;2.20;;
73158;SDS011;61370;48.594;10.202;2022-08-11T19:36:49;4.57;;;1.90;;
73158;SDS011;61370;48.594;10.202;2022-08-11T19:39:36;2.95;;;1.73;;
73158;SDS011;61370;48.594;10.202;2022-08-11T19:42:21;5.65;;;1.92;;